createdAt,value
2023-04-01T00:01:32.357Z,10.90
2023-04-01T00:04:03.088Z,10.90
2023-04-01T00:06:31.622Z,11.00
2023-04-01T00:09:00.280Z,10.90
2023-04-01T00:11:31.010Z,10.90
2023-04-01T00:13:59.216Z,10.90
2023-04-01T00:16:29.228Z,10.90
2023-04-01T00:18:59.476Z,10.90
2023-04-01T00:21:27.560Z,10.90
2023-04-01T00:23:55.805Z,10.90
2023-04-01T00:26:24.352Z,10.90
2023-04-01T00:28:53.328Z,10.90
2023-04-01T00:31:23.544Z,10.90
2023-04-01T00:33:54.323Z,10.90
2023-04-01T00:36:23.045Z,10.90
2023-04-01T00:38:53.036Z,10.90
2023-04-01T00:41:22.577Z,10.90
2023-04-01T00:43:52.480Z,10.80
2023-04-01T00:46:20.553Z,10.90
2023-04-01T00:48:53.112Z,10.90
2023-04-01T00:51:27.299Z,10.80
2023-04-01T00:53:59.286Z,10.80
2023-04-01T00:56:33.844Z,10.80
2023-04-01T00:59:09.661Z,10.80
2023-04-01T01:01:38.618Z,10.80
2023-04-01T01:04:07.552Z,10.80
2023-04-01T01:06:41.598Z,10.80
2023-04-01T01:09:44.712Z,10.80
2023-04-01T01:12:23.975Z,10.80
2023-04-01T01:15:11.053Z,10.80
2023-04-01T01:18:07.176Z,10.80
2023-04-01T01:20:53.796Z,10.80
2023-04-01T01:23:44.388Z,10.80
2023-04-01T01:26:36.835Z,10.70
2023-04-01T01:29:32.856Z,10.70
2023-04-01T01:32:19.157Z,10.70
2023-04-01T01:35:25.168Z,10.70
2023-04-01T01:37:59.756Z,10.70
2023-04-01T01:40:30.035Z,10.70
2023-04-01T01:43:06.356Z,10.70
2023-04-01T01:45:42.992Z,10.70
2023-04-01T01:48:12.409Z,10.60
2023-04-01T01:50:42.755Z,10.60
2023-04-01T01:53:14.329Z,10.60
2023-04-01T01:55:46.449Z,10.60
2023-04-01T01:58:33.753Z,10.50
2023-04-01T02:01:06.807Z,10.50
2023-04-01T02:03:38.653Z,10.50
2023-04-01T02:06:08.649Z,10.50
2023-04-01T02:08:42.451Z,10.50
2023-04-01T02:11:14.203Z,10.40
2023-04-01T02:13:58.331Z,10.40
2023-04-01T02:16:41.727Z,10.40
2023-04-01T02:19:13.450Z,10.40
2023-04-01T02:21:43.107Z,10.30
2023-04-01T02:24:16.468Z,10.30
2023-04-01T02:26:46.317Z,10.30
2023-04-01T02:29:15.145Z,10.30
2023-04-01T02:31:44.851Z,10.30
2023-04-01T02:34:13.715Z,10.30
2023-04-01T02:36:43.665Z,10.30
2023-04-01T02:39:12.334Z,10.30
2023-04-01T02:41:45.666Z,10.30
2023-04-01T02:44:16.168Z,10.30
2023-04-01T02:46:45.469Z,10.20
2023-04-01T02:49:14.798Z,10.20
2023-04-01T02:51:43.807Z,10.20
2023-04-01T02:54:12.895Z,10.20
2023-04-01T02:56:41.318Z,10.20
2023-04-01T02:59:09.462Z,10.20
2023-04-01T03:01:38.345Z,10.20
2023-04-01T03:04:06.660Z,10.20
2023-04-01T03:06:34.628Z,10.20
2023-04-01T03:09:04.422Z,10.20
2023-04-01T03:11:32.890Z,10.20
2023-04-01T03:14:01.651Z,10.20
2023-04-01T03:16:29.589Z,10.20
2023-04-01T03:19:00.029Z,10.20
2023-04-01T03:21:28.307Z,10.20
2023-04-01T03:23:56.435Z,10.20
2023-04-01T03:26:24.304Z,10.20
2023-04-01T03:28:52.656Z,10.10
2023-04-01T03:31:22.514Z,10.10
2023-04-01T03:33:56.918Z,10.10
2023-04-01T03:36:24.805Z,10.10
2023-04-01T03:38:55.472Z,10.10
2023-04-01T03:41:36.777Z,10.10
2023-04-01T03:44:05.265Z,10.10
2023-04-01T03:46:36.843Z,10.10
2023-04-01T03:49:12.596Z,10.10
2023-04-01T03:51:44.920Z,10.10
2023-04-01T03:54:13.555Z,10.10
2023-04-01T03:56:42.408Z,10.10
2023-04-01T03:59:13.663Z,10.10
2023-04-01T04:01:44.708Z,10.10
2023-04-01T04:04:18.869Z,10.10
2023-04-01T04:06:47.108Z,10.10
2023-04-01T04:09:17.863Z,10.10
2023-04-01T04:11:48.042Z,10.10
2023-04-01T04:14:24.594Z,10.00
2023-04-01T04:16:53.539Z,10.00
2023-04-01T04:19:24.310Z,10.00
2023-04-01T04:21:52.762Z,10.00
2023-04-01T04:24:21.163Z,10.00
2023-04-01T04:27:04.698Z,10.00
2023-04-01T04:29:33.316Z,10.00
2023-04-01T04:32:03.727Z,10.00
2023-04-01T04:34:32.436Z,10.00
2023-04-01T04:37:00.513Z,10.00
2023-04-01T04:39:32.947Z,10.00
2023-04-01T04:42:06.441Z,10.00
2023-04-01T04:44:34.931Z,10.00
2023-04-01T04:47:08.647Z,9.90
2023-04-01T04:49:38.514Z,9.90
2023-04-01T04:52:15.693Z,9.90
2023-04-01T04:54:43.903Z,9.90
2023-04-01T04:57:12.396Z,9.90
2023-04-01T04:59:47.191Z,9.90
2023-04-01T05:02:33.783Z,9.80
2023-04-01T05:05:02.390Z,9.80
2023-04-01T05:07:30.878Z,9.90
2023-04-01T05:09:59.178Z,9.80
2023-04-01T05:12:28.379Z,9.80
2023-04-01T05:15:00.209Z,9.80
2023-04-01T05:17:28.606Z,9.80
2023-04-01T05:19:56.701Z,9.80
2023-04-01T05:22:26.617Z,9.90
2023-04-01T05:24:54.932Z,9.90
2023-04-01T05:27:27.210Z,9.90
2023-04-01T05:32:24.853Z,9.90
2023-04-01T05:34:53.565Z,9.90
2023-04-01T05:37:21.468Z,9.90
2023-04-01T05:39:49.479Z,9.90
2023-04-01T05:42:17.727Z,9.90
2023-04-01T05:44:45.766Z,9.90
2023-04-01T05:47:51.750Z,9.90
2023-04-01T05:50:21.073Z,9.90
2023-04-01T05:52:48.873Z,9.90
2023-04-01T05:55:17.708Z,9.80
2023-04-01T05:57:50.435Z,9.90
2023-04-01T06:00:20.318Z,9.90
2023-04-01T06:02:48.910Z,9.90
2023-04-01T06:05:24.464Z,9.90
2023-04-01T06:07:59.508Z,9.90
2023-04-01T06:10:45.880Z,9.90
2023-04-01T06:13:31.913Z,9.90
2023-04-01T06:16:10.633Z,9.90
2023-04-01T06:18:59.877Z,9.90
2023-04-01T06:21:52.786Z,9.80
2023-04-01T06:24:50.549Z,9.80
2023-04-01T06:27:39.123Z,9.80
2023-04-01T06:30:26.496Z,9.80
2023-04-01T06:33:00.710Z,9.80
2023-04-01T06:35:37.152Z,9.80
2023-04-01T06:38:16.737Z,9.80
2023-04-01T06:40:47.981Z,9.80
2023-04-01T06:43:41.225Z,9.80
2023-04-01T06:46:47.103Z,9.80
2023-04-01T06:49:57.093Z,9.80
2023-04-01T06:52:42.495Z,9.70
2023-04-01T06:55:44.055Z,9.80
2023-04-01T06:58:42.244Z,9.80
2023-04-01T07:01:21.149Z,9.80
2023-04-01T07:04:03.095Z,9.80
2023-04-01T07:06:37.409Z,9.80
2023-04-01T07:09:13.288Z,9.80
2023-04-01T07:12:42.247Z,9.80
2023-04-01T07:15:42.175Z,9.80
2023-04-01T07:18:24.962Z,9.80
2023-04-01T07:20:56.305Z,9.80
2023-04-01T07:23:40.236Z,9.90
2023-04-01T07:26:26.071Z,9.90
2023-04-01T07:28:59.869Z,10.00
2023-04-01T07:32:04.542Z,9.90
2023-04-01T07:34:49.130Z,10.00
2023-04-01T07:37:36.666Z,10.10
2023-04-01T07:40:16.771Z,10.20
2023-04-01T07:42:56.597Z,10.10
2023-04-01T07:45:29.672Z,10.10
2023-04-01T07:48:26.887Z,10.20
2023-04-01T07:51:04.521Z,10.20
2023-04-01T07:53:36.430Z,10.20
2023-04-01T07:56:19.042Z,10.20
2023-04-01T07:58:57.709Z,10.20
2023-04-01T08:02:14.338Z,10.20
2023-04-01T08:05:14.400Z,10.10
2023-04-01T08:08:01.396Z,10.00
2023-04-01T08:11:33.107Z,10.00
2023-04-01T08:14:40.585Z,10.00
2023-04-01T08:17:34.741Z,10.00
2023-04-01T08:20:11.722Z,10.00
2023-04-01T08:23:04.925Z,9.90
2023-04-01T08:25:45.716Z,9.90
2023-04-01T08:28:30.108Z,9.90
2023-04-01T08:31:19.825Z,9.90
2023-04-01T08:33:50.261Z,9.90
2023-04-01T08:36:25.889Z,9.90
2023-04-01T08:39:19.355Z,10.00
2023-04-01T08:42:16.262Z,10.00
2023-04-01T08:45:18.953Z,10.10
2023-04-01T08:48:10.103Z,10.10
2023-04-01T08:51:07.899Z,10.10
2023-04-01T08:54:00.517Z,10.10
2023-04-01T08:56:39.587Z,10.20
2023-04-01T08:59:29.865Z,10.30
2023-04-01T09:02:17.940Z,10.40
2023-04-01T09:05:25.213Z,10.40
2023-04-01T09:08:02.920Z,10.50
2023-04-01T09:10:55.850Z,10.60
2023-04-01T09:14:14.058Z,10.60
2023-04-01T09:17:08.589Z,10.60
2023-04-01T09:20:01.344Z,10.60
2023-04-01T09:22:49.754Z,10.70
2023-04-01T09:25:24.043Z,10.70
2023-04-01T09:28:02.918Z,10.70
2023-04-01T09:31:05.070Z,10.70
2023-04-01T09:33:52.796Z,10.80
2023-04-01T09:36:47.735Z,10.90
2023-04-01T09:39:43.268Z,10.90
2023-04-01T09:42:44.812Z,11.00
2023-04-01T09:46:11.826Z,11.10
2023-04-01T09:48:42.384Z,11.10
2023-04-01T09:51:25.930Z,11.10
2023-04-01T09:54:13.343Z,11.10
2023-04-01T09:56:52.850Z,11.10
2023-04-01T09:59:29.892Z,11.10
2023-04-01T10:03:03.604Z,11.10
2023-04-01T10:06:09.534Z,11.00
2023-04-01T10:08:58.689Z,11.00
2023-04-01T10:12:17.653Z,11.10
2023-04-01T10:15:01.329Z,11.00
2023-04-01T10:17:53.380Z,11.00
2023-04-01T10:20:43.560Z,10.90
2023-04-01T10:23:33.098Z,10.90
2023-04-01T10:26:23.290Z,10.80
2023-04-01T10:29:16.890Z,10.80
2023-04-01T10:31:45.055Z,10.90
2023-04-01T10:34:25.033Z,10.90
2023-04-01T10:36:59.113Z,11.00
2023-04-01T10:40:13.513Z,11.00
2023-04-01T10:43:28.757Z,11.10
2023-04-01T10:46:18.653Z,11.10
2023-04-01T10:49:01.878Z,11.10
2023-04-01T10:51:49.958Z,11.10
2023-04-01T10:54:47.275Z,11.10
2023-04-01T10:57:52.422Z,11.20
2023-04-01T11:00:52.625Z,11.20
2023-04-01T11:04:05.552Z,11.30
2023-04-01T11:07:08.983Z,11.40
2023-04-01T11:09:52.053Z,11.60
2023-04-01T11:12:34.654Z,11.80
2023-04-01T11:15:32.791Z,11.80
2023-04-01T11:18:46.200Z,11.70
2023-04-01T11:21:26.819Z,11.80
2023-04-01T11:24:14.381Z,11.70
2023-04-01T11:27:14.169Z,11.60
2023-04-01T11:30:00.201Z,11.50
2023-04-01T11:33:09.077Z,11.40
2023-04-01T11:35:48.256Z,11.30
2023-04-01T11:38:40.220Z,11.30
2023-04-01T11:41:42.836Z,11.40
2023-04-01T11:44:31.447Z,11.30
2023-04-01T11:47:34.256Z,11.40
2023-04-01T11:50:37.921Z,11.40
2023-04-01T11:53:11.965Z,11.50
2023-04-01T11:55:52.091Z,11.50
2023-04-01T11:58:42.545Z,11.40
2023-04-01T12:01:17.532Z,11.40
2023-04-01T12:04:09.787Z,11.50
2023-04-01T12:06:37.997Z,11.60
2023-04-01T12:09:17.811Z,11.80
2023-04-01T12:11:54.313Z,12.00
2023-04-01T12:14:46.840Z,12.00
2023-04-01T12:17:42.278Z,12.00
2023-04-01T12:20:13.324Z,11.90
2023-04-01T12:22:58.440Z,11.80
2023-04-01T12:25:58.974Z,11.90
2023-04-01T12:28:40.883Z,11.90
2023-04-01T12:31:45.899Z,11.80
2023-04-01T12:34:29.000Z,11.80
2023-04-01T12:37:18.379Z,11.80
2023-04-01T12:39:54.346Z,11.80
2023-04-01T12:42:43.665Z,11.80
2023-04-01T12:45:32.860Z,11.80
2023-04-01T12:48:10.683Z,11.70
2023-04-01T12:50:47.740Z,11.70
2023-04-01T12:53:54.458Z,11.80
2023-04-01T12:56:48.594Z,11.70
2023-04-01T12:59:43.854Z,11.70
2023-04-01T13:02:22.594Z,11.90
2023-04-01T13:05:02.915Z,12.00
2023-04-01T13:07:51.749Z,12.10
2023-04-01T13:10:37.631Z,12.10
2023-04-01T13:13:23.563Z,12.10
2023-04-01T13:16:00.644Z,12.10
2023-04-01T13:18:48.954Z,12.10
2023-04-01T13:21:24.797Z,12.10
2023-04-01T13:24:25.208Z,12.10
2023-04-01T13:27:17.999Z,12.10
2023-04-01T13:30:19.895Z,12.00
2023-04-01T13:33:20.813Z,12.00
2023-04-01T13:36:21.062Z,12.00
2023-04-01T13:38:56.473Z,12.00
2023-04-01T13:42:06.121Z,12.10
2023-04-01T13:44:52.653Z,12.30
2023-04-01T13:47:23.417Z,12.40
2023-04-01T13:50:00.442Z,12.50
2023-04-01T13:52:47.343Z,12.60
2023-04-01T13:55:20.590Z,12.70
2023-04-01T13:58:38.002Z,12.80
2023-04-01T14:01:42.077Z,12.80
2023-04-01T14:04:31.644Z,12.90
2023-04-01T14:07:19.498Z,13.00
2023-04-01T14:10:08.800Z,13.10
2023-04-01T14:13:02.380Z,13.10
2023-04-01T14:15:39.933Z,13.10
2023-04-01T14:18:17.001Z,13.20
2023-04-01T14:21:14.539Z,13.10
2023-04-01T14:24:10.880Z,13.00
2023-04-01T14:27:12.277Z,13.00
2023-04-01T14:30:25.244Z,12.90
2023-04-01T14:33:14.856Z,12.90
2023-04-01T14:38:28.528Z,12.90
2023-04-01T14:41:33.574Z,12.90
2023-04-01T14:44:49.654Z,12.80
2023-04-01T14:47:33.072Z,12.80
2023-04-01T14:50:13.349Z,12.70
2023-04-01T14:52:47.770Z,12.70
2023-04-01T14:55:35.793Z,12.70
2023-04-01T14:58:19.026Z,12.60
2023-04-01T15:00:47.965Z,12.50
2023-04-01T15:03:33.746Z,12.40
2023-04-01T15:06:32.643Z,12.30
2023-04-01T15:09:33.888Z,12.30
2023-04-01T15:12:04.659Z,12.20
2023-04-01T15:14:46.850Z,12.10
2023-04-01T15:17:30.006Z,12.00
2023-04-01T15:20:14.622Z,12.00
2023-04-01T15:23:20.870Z,12.00
2023-04-01T15:26:07.190Z,11.90
2023-04-01T15:29:03.813Z,11.80
2023-04-01T15:31:54.382Z,11.80
2023-04-01T15:34:34.649Z,11.80
2023-04-01T15:37:47.467Z,11.80
2023-04-01T15:40:29.127Z,11.80
2023-04-01T15:43:29.590Z,11.70
2023-04-01T15:46:33.615Z,11.70
2023-04-01T15:49:09.911Z,11.60
2023-04-01T15:52:05.374Z,11.50
2023-04-01T15:54:48.217Z,11.50
2023-04-01T15:57:28.027Z,11.50
2023-04-01T16:00:25.157Z,11.40
2023-04-01T16:03:17.507Z,11.40
2023-04-01T16:06:00.597Z,11.30
2023-04-01T16:09:08.842Z,11.30
2023-04-01T16:12:06.085Z,11.30
2023-04-01T16:14:56.492Z,11.20
2023-04-01T16:17:56.961Z,11.20
2023-04-01T16:20:51.092Z,11.10
2023-04-01T16:23:40.541Z,11.10
2023-04-01T16:26:20.068Z,11.10
2023-04-01T16:29:09.425Z,11.10
2023-04-01T16:32:00.113Z,11.10
2023-04-01T16:34:43.635Z,11.10
2023-04-01T16:37:16.651Z,11.10
2023-04-01T16:39:55.533Z,11.10
2023-04-01T16:42:47.734Z,11.00
2023-04-01T16:45:26.184Z,11.00
2023-04-01T16:48:07.271Z,10.90
2023-04-01T16:50:47.717Z,10.90
2023-04-01T16:53:16.958Z,10.90
2023-04-01T16:55:54.114Z,10.90
2023-04-01T16:58:27.329Z,10.90
2023-04-01T17:01:11.568Z,10.80
2023-04-01T17:03:47.725Z,10.80
2023-04-01T17:06:25.506Z,10.80
2023-04-01T17:08:59.141Z,10.80
2023-04-01T17:11:49.028Z,10.70
2023-04-01T17:14:19.619Z,10.70
2023-04-01T17:16:53.572Z,10.70
2023-04-01T17:19:26.293Z,10.70
2023-04-01T17:22:20.664Z,10.70
2023-04-01T17:25:25.925Z,10.70
2023-04-01T17:28:15.985Z,10.70
2023-04-01T17:31:06.517Z,10.70
2023-04-01T17:33:53.800Z,10.70
2023-04-01T17:36:39.726Z,10.40
2023-04-01T17:39:37.242Z,10.70
2023-04-01T17:42:16.287Z,10.70
2023-04-01T17:45:19.114Z,10.70
2023-04-01T17:48:23.822Z,10.70
2023-04-01T17:51:10.061Z,10.70
2023-04-01T17:54:12.307Z,10.70
2023-04-01T17:57:22.800Z,10.70
2023-04-01T18:00:25.313Z,10.70
2023-04-01T18:03:24.412Z,10.60
2023-04-01T18:06:14.274Z,10.70
2023-04-01T18:08:42.282Z,10.70
2023-04-01T18:11:36.220Z,10.60
2023-04-01T18:14:04.204Z,10.60
2023-04-01T18:16:36.370Z,10.60
2023-04-01T18:19:14.615Z,10.60
2023-04-01T18:21:48.464Z,10.60
2023-04-01T18:24:28.081Z,10.60
2023-04-01T18:27:03.885Z,10.60
2023-04-01T18:29:41.017Z,10.60
2023-04-01T18:32:14.415Z,10.60
2023-04-01T18:35:01.359Z,10.60
2023-04-01T18:38:01.561Z,10.60
2023-04-01T18:40:55.711Z,10.60
2023-04-01T18:43:59.575Z,10.60
2023-04-01T18:46:29.969Z,10.50
2023-04-01T18:49:30.260Z,10.50
2023-04-01T18:52:18.825Z,10.50
2023-04-01T18:54:50.209Z,10.50
2023-04-01T18:57:21.089Z,10.50
2023-04-01T18:59:57.689Z,10.50
2023-04-01T19:02:49.578Z,10.50
2023-04-01T19:05:32.813Z,10.50
2023-04-01T19:08:20.750Z,10.50
2023-04-01T19:10:54.316Z,10.40
2023-04-01T19:13:30.741Z,10.40
2023-04-01T19:16:01.580Z,10.30
2023-04-01T19:18:35.475Z,10.30
2023-04-01T19:21:15.108Z,10.20
2023-04-01T19:24:11.242Z,10.10
2023-04-01T19:26:47.343Z,10.10
2023-04-01T19:29:18.366Z,10.10
2023-04-01T19:32:16.844Z,10.10
2023-04-01T19:35:00.958Z,10.10
2023-04-01T19:37:32.966Z,10.10
2023-04-01T19:40:38.127Z,10.00
2023-04-01T19:43:39.643Z,10.00
2023-04-01T19:46:20.351Z,9.80
2023-04-01T19:49:01.202Z,9.80
2023-04-01T19:51:57.861Z,9.70
2023-04-01T19:54:54.968Z,9.70
2023-04-01T19:57:39.366Z,9.60
2023-04-01T20:00:48.383Z,9.60
2023-04-01T20:03:48.930Z,9.50
2023-04-01T20:06:29.067Z,9.50
2023-04-01T20:09:27.758Z,9.40
2023-04-01T20:12:16.321Z,9.40
2023-04-01T20:14:54.266Z,9.30
2023-04-01T20:17:32.990Z,9.30
2023-04-01T20:20:11.038Z,9.30
2023-04-01T20:22:44.945Z,9.30
2023-04-01T20:25:22.063Z,9.30
2023-04-01T20:28:01.574Z,9.30
2023-04-01T20:30:38.769Z,9.30
2023-04-01T20:33:22.013Z,9.30
2023-04-01T20:36:15.196Z,9.20
2023-04-01T20:39:04.562Z,9.20
2023-04-01T20:41:54.140Z,9.30
2023-04-01T20:44:40.487Z,9.30
2023-04-01T20:47:18.669Z,9.30
2023-04-01T20:50:00.638Z,9.30
2023-04-01T20:52:44.134Z,9.20
2023-04-01T20:55:27.858Z,9.20
2023-04-01T20:58:01.654Z,9.20
2023-04-01T21:00:56.012Z,9.20
2023-04-01T21:03:50.825Z,9.20
2023-04-01T21:06:49.568Z,9.20
2023-04-01T21:09:48.281Z,9.20
2023-04-01T21:12:32.416Z,9.20
2023-04-01T21:15:23.685Z,9.20
2023-04-01T21:18:46.040Z,9.20
2023-04-01T21:21:16.902Z,9.20
2023-04-01T21:24:04.598Z,9.20
2023-04-01T21:27:01.897Z,9.20
2023-04-01T21:30:20.999Z,9.20
2023-04-01T21:33:04.584Z,9.10
2023-04-01T21:35:49.755Z,9.10
2023-04-01T21:38:23.933Z,9.10
2023-04-01T21:40:59.186Z,9.10
2023-04-01T21:43:32.805Z,9.10
2023-04-01T21:46:39.315Z,9.10
2023-04-01T21:49:29.225Z,9.10
2023-04-01T21:52:25.202Z,9.10
2023-04-01T21:55:05.777Z,9.00
2023-04-01T21:57:37.429Z,9.00
2023-04-01T22:00:25.139Z,9.00
2023-04-01T22:03:10.288Z,9.00
2023-04-01T22:06:03.296Z,8.90
2023-04-01T22:08:57.110Z,8.90
2023-04-01T22:11:57.554Z,8.90
2023-04-01T22:14:43.008Z,8.90
2023-04-01T22:18:05.322Z,8.90
2023-04-01T22:20:51.562Z,8.90
2023-04-01T22:23:31.883Z,8.90
2023-04-01T22:26:00.292Z,8.90
2023-04-01T22:28:34.103Z,9.00
2023-04-01T22:31:03.691Z,8.90
2023-04-01T22:33:51.643Z,8.90
2023-04-01T22:36:30.818Z,9.00
2023-04-01T22:39:08.214Z,8.90
2023-04-01T22:41:38.782Z,8.90
2023-04-01T22:44:36.576Z,8.90
2023-04-01T22:47:57.978Z,8.90
2023-04-01T22:50:54.738Z,8.90
2023-04-01T22:53:41.129Z,8.90
2023-04-01T22:56:17.963Z,8.90
2023-04-01T22:58:57.742Z,9.00
2023-04-01T23:01:30.758Z,9.00
2023-04-01T23:03:59.988Z,8.90
2023-04-01T23:06:39.016Z,8.90
2023-04-01T23:09:27.823Z,8.90
2023-04-01T23:12:32.943Z,8.90
2023-04-01T23:15:04.063Z,8.90
2023-04-01T23:17:32.140Z,8.90
2023-04-01T23:20:23.486Z,8.80
2023-04-01T23:23:06.332Z,8.90
2023-04-01T23:25:44.520Z,8.90
2023-04-01T23:28:15.711Z,8.80
2023-04-01T23:30:43.407Z,8.80
2023-04-01T23:33:11.415Z,8.80
2023-04-01T23:35:52.613Z,8.80
2023-04-01T23:38:26.460Z,8.80
2023-04-01T23:40:56.504Z,8.80
2023-04-01T23:43:38.994Z,8.80
2023-04-01T23:46:08.582Z,8.80
2023-04-01T23:48:47.011Z,8.80
2023-04-01T23:51:28.426Z,8.90
2023-04-01T23:54:14.764Z,8.80
2023-04-01T23:56:46.811Z,8.80
2023-04-01T23:59:23.190Z,8.80
